createdAt,value
2023-05-04T00:00:16.947Z,91.80
2023-05-04T00:02:43.721Z,91.90
2023-05-04T00:05:12.106Z,92.00
2023-05-04T00:07:39.101Z,91.90
2023-05-04T00:10:06.549Z,91.80
2023-05-04T00:12:33.479Z,92.20
2023-05-04T00:15:00.232Z,91.70
2023-05-04T00:17:26.897Z,91.50
2023-05-04T00:19:53.582Z,91.40
2023-05-04T00:22:20.457Z,91.50
2023-05-04T00:24:47.349Z,91.10
2023-05-04T00:27:14.153Z,91.00
2023-05-04T00:29:40.792Z,91.00
2023-05-04T00:32:07.522Z,90.80
2023-05-04T00:34:34.304Z,90.90
2023-05-04T00:37:01.221Z,91.00
2023-05-04T00:39:28.320Z,91.40
2023-05-04T00:41:55.850Z,91.30
2023-05-04T00:44:23.969Z,91.60
2023-05-04T00:46:55.314Z,91.70
2023-05-04T00:49:22.653Z,91.80
2023-05-04T00:51:51.446Z,91.90
2023-05-04T00:54:18.926Z,92.00
2023-05-04T00:56:46.008Z,92.10
2023-05-04T00:59:13.852Z,92.30
2023-05-04T01:01:41.297Z,92.60
2023-05-04T01:04:08.715Z,92.40
2023-05-04T01:07:06.170Z,92.60
2023-05-04T01:09:41.862Z,92.40
2023-05-04T01:12:25.726Z,92.30
2023-05-04T01:14:54.686Z,92.60
2023-05-04T01:17:22.274Z,92.60
2023-05-04T01:19:51.060Z,92.80
2023-05-04T01:22:17.708Z,92.80
2023-05-04T01:24:44.421Z,92.80
2023-05-04T01:27:24.296Z,92.60
2023-05-04T01:29:59.993Z,92.90
2023-05-04T01:32:29.265Z,93.00
2023-05-04T01:34:58.373Z,93.40
2023-05-04T01:37:26.033Z,93.60
2023-05-04T01:39:54.073Z,93.70
2023-05-04T01:42:20.750Z,93.30
2023-05-04T01:44:47.441Z,92.80
2023-05-04T01:47:14.095Z,92.70
2023-05-04T01:49:40.772Z,92.60
2023-05-04T01:52:07.495Z,92.60
2023-05-04T01:54:34.187Z,92.70
2023-05-04T01:57:01.885Z,92.30
2023-05-04T01:59:28.862Z,92.70
2023-05-04T02:01:55.857Z,92.90
2023-05-04T02:04:22.620Z,93.00
2023-05-04T02:06:49.291Z,93.10
2023-05-04T02:09:17.397Z,92.90
2023-05-04T02:11:44.539Z,93.10
2023-05-04T02:14:11.213Z,93.50
2023-05-04T02:16:38.038Z,93.40
2023-05-04T02:19:04.824Z,93.50
2023-05-04T02:21:31.574Z,93.60
2023-05-04T02:23:59.128Z,93.70
2023-05-04T02:26:25.775Z,93.60
2023-05-04T02:28:52.573Z,93.80
2023-05-04T02:31:19.300Z,93.90
2023-05-04T02:33:45.955Z,93.60
2023-05-04T02:36:12.586Z,93.40
2023-05-04T02:38:39.231Z,93.70
2023-05-04T02:41:06.154Z,93.90
2023-05-04T02:43:32.788Z,94.30
2023-05-04T02:45:59.726Z,94.30
2023-05-04T02:48:26.434Z,94.10
2023-05-04T02:50:53.109Z,94.00
2023-05-04T02:53:19.821Z,94.00
2023-05-04T02:55:46.475Z,94.10
2023-05-04T02:58:13.089Z,94.60
2023-05-04T03:00:39.899Z,94.50
2023-05-04T03:03:07.030Z,94.60
2023-05-04T03:05:33.841Z,94.50
2023-05-04T03:08:00.951Z,94.40
2023-05-04T03:10:27.752Z,93.90
2023-05-04T03:12:54.482Z,93.60
2023-05-04T03:15:21.269Z,93.40
2023-05-04T03:17:48.206Z,93.60
2023-05-04T03:20:15.062Z,94.00
2023-05-04T03:22:42.285Z,94.10
2023-05-04T03:25:09.721Z,94.40
2023-05-04T03:27:36.890Z,94.00
2023-05-04T03:30:04.452Z,94.10
2023-05-04T03:32:31.383Z,94.20
2023-05-04T03:34:58.070Z,94.40
2023-05-04T03:37:25.127Z,94.20
2023-05-04T03:39:51.954Z,94.00
2023-05-04T03:42:18.674Z,94.00
2023-05-04T03:44:46.905Z,94.10
2023-05-04T03:47:13.573Z,94.30
2023-05-04T03:49:40.247Z,94.50
2023-05-04T03:52:07.271Z,94.40
2023-05-04T03:54:34.421Z,94.50
2023-05-04T03:57:02.247Z,94.80
2023-05-04T03:59:28.912Z,94.50
2023-05-04T04:01:55.700Z,94.60
2023-05-04T04:04:22.372Z,94.70
2023-05-04T04:06:49.094Z,95.10
2023-05-04T04:09:15.948Z,94.90
2023-05-04T04:11:42.628Z,94.80
2023-05-04T04:14:09.285Z,94.40
2023-05-04T04:16:36.049Z,94.50
2023-05-04T04:19:03.006Z,94.40
2023-05-04T04:21:29.762Z,94.30
2023-05-04T04:23:56.393Z,94.20
2023-05-04T04:26:23.045Z,94.50
2023-05-04T04:28:50.827Z,94.60
2023-05-04T04:31:21.412Z,95.00
2023-05-04T04:33:50.384Z,95.00
2023-05-04T04:36:18.129Z,94.90
2023-05-04T04:38:45.338Z,95.10
2023-05-04T04:41:12.051Z,95.10
2023-05-04T04:43:38.733Z,94.90
2023-05-04T04:46:05.836Z,94.70
2023-05-04T04:48:32.753Z,94.70
2023-05-04T04:51:02.012Z,94.30
2023-05-04T04:53:28.886Z,94.20
2023-05-04T04:55:56.118Z,94.10
2023-05-04T04:58:22.890Z,94.00
2023-05-04T05:00:52.005Z,93.90
2023-05-04T05:03:18.796Z,93.60
2023-05-04T05:05:45.622Z,93.50
2023-05-04T05:08:12.253Z,93.50
2023-05-04T05:10:39.032Z,93.30
2023-05-04T05:13:06.459Z,93.60
2023-05-04T05:15:33.210Z,93.60
2023-05-04T05:17:59.982Z,93.70
2023-05-04T05:20:26.810Z,93.40
2023-05-04T05:22:53.453Z,93.30
2023-05-04T05:25:21.799Z,92.90
2023-05-04T05:27:48.555Z,92.90
2023-05-04T05:30:15.418Z,93.10
2023-05-04T05:32:42.803Z,93.10
2023-05-04T05:35:09.729Z,93.20
2023-05-04T05:37:36.420Z,92.90
2023-05-04T05:40:06.424Z,92.70
2023-05-04T05:42:36.274Z,92.10
2023-05-04T05:45:08.205Z,91.80
2023-05-04T05:47:34.865Z,91.70
2023-05-04T05:50:01.884Z,90.90
2023-05-04T05:52:28.727Z,91.00
2023-05-04T05:54:55.497Z,91.00
2023-05-04T05:57:23.239Z,91.20
2023-05-04T05:59:50.588Z,90.90
2023-05-04T06:02:21.864Z,90.60
2023-05-04T06:04:52.103Z,91.10
2023-05-04T06:07:24.521Z,90.80
2023-05-04T06:09:53.956Z,90.80
2023-05-04T06:12:20.616Z,90.50
2023-05-04T06:14:47.924Z,90.90
2023-05-04T06:17:15.506Z,90.90
2023-05-04T06:19:48.084Z,90.40
2023-05-04T06:22:19.129Z,89.90
2023-05-04T06:24:50.320Z,89.90
2023-05-04T06:27:17.340Z,89.90
2023-05-04T06:29:43.990Z,90.00
2023-05-04T06:32:10.812Z,90.20
2023-05-04T06:34:41.075Z,89.70
2023-05-04T06:37:08.334Z,90.10
2023-05-04T06:39:38.791Z,90.00
2023-05-04T06:42:05.686Z,90.30
2023-05-04T06:44:37.866Z,90.50
2023-05-04T06:47:04.565Z,90.40
2023-05-04T06:49:32.272Z,90.20
2023-05-04T06:51:58.930Z,90.40
2023-05-04T06:54:25.693Z,89.90
2023-05-04T06:56:52.357Z,89.70
2023-05-04T06:59:20.314Z,89.60
2023-05-04T07:01:47.697Z,89.70
2023-05-04T07:04:16.394Z,89.80
2023-05-04T07:06:43.643Z,89.50
2023-05-04T07:09:10.410Z,89.60
2023-05-04T07:11:37.125Z,89.50
2023-05-04T07:14:03.782Z,89.50
2023-05-04T07:16:32.201Z,89.50
2023-05-04T07:18:59.666Z,89.30
2023-05-04T07:21:28.878Z,89.30
2023-05-04T07:23:56.825Z,89.30
2023-05-04T07:26:23.571Z,88.90
2023-05-04T07:28:50.672Z,89.20
2023-05-04T07:31:17.382Z,89.30
2023-05-04T07:33:44.068Z,89.30
2023-05-04T07:36:10.914Z,89.10
2023-05-04T07:38:39.987Z,88.90
2023-05-04T07:41:09.288Z,88.30
2023-05-04T07:43:36.826Z,88.00
2023-05-04T07:46:06.909Z,87.90
2023-05-04T07:48:41.700Z,87.70
2023-05-04T07:51:13.514Z,87.40
2023-05-04T07:53:46.984Z,87.90
2023-05-04T07:56:13.973Z,87.20
2023-05-04T07:58:41.308Z,87.20
2023-05-04T08:01:08.287Z,87.30
2023-05-04T08:03:35.107Z,87.10
2023-05-04T08:06:02.502Z,87.40
2023-05-04T08:08:32.896Z,87.20
2023-05-04T08:11:15.837Z,86.90
2023-05-04T08:14:03.626Z,86.90
2023-05-04T08:16:31.348Z,86.60
2023-05-04T08:19:02.757Z,86.50
2023-05-04T08:21:30.179Z,86.10
2023-05-04T08:23:57.877Z,86.10
2023-05-04T08:26:24.695Z,85.60
2023-05-04T08:28:52.016Z,85.80
2023-05-04T08:31:19.200Z,85.70
2023-05-04T08:33:46.207Z,85.50
2023-05-04T08:36:13.247Z,84.60
2023-05-04T08:38:43.968Z,85.00
2023-05-04T08:41:11.012Z,85.00
2023-05-04T08:43:39.647Z,84.50
2023-05-04T08:46:10.173Z,84.40
2023-05-04T08:48:37.843Z,84.50
2023-05-04T08:51:06.980Z,84.00
2023-05-04T08:53:37.107Z,83.40
2023-05-04T08:56:09.138Z,82.80
2023-05-04T08:58:48.257Z,81.50
2023-05-04T09:01:17.101Z,82.00
2023-05-04T09:03:45.991Z,81.80
2023-05-04T09:06:14.717Z,81.30
2023-05-04T09:08:41.970Z,81.20
2023-05-04T09:11:08.812Z,81.20
2023-05-04T09:13:36.487Z,80.50
2023-05-04T09:16:04.000Z,81.00
2023-05-04T09:18:41.223Z,80.20
2023-05-04T09:21:08.410Z,80.20
2023-05-04T09:23:51.623Z,79.90
2023-05-04T09:26:31.840Z,79.20
2023-05-04T09:29:14.250Z,78.90
2023-05-04T09:31:48.912Z,78.80
2023-05-04T09:34:16.028Z,79.00
2023-05-04T09:36:42.940Z,78.10
2023-05-04T09:39:13.310Z,77.50
2023-05-04T09:41:41.649Z,77.40
2023-05-04T09:44:19.638Z,77.60
2023-05-04T09:46:57.823Z,77.70
2023-05-04T09:49:35.649Z,77.30
2023-05-04T09:52:05.066Z,76.10
2023-05-04T09:54:34.758Z,77.00
2023-05-04T09:57:14.215Z,76.90
2023-05-04T09:59:41.729Z,77.00
2023-05-04T10:02:21.254Z,77.00
2023-05-04T10:04:53.642Z,76.60
2023-05-04T10:07:25.116Z,76.30
2023-05-04T10:09:53.196Z,75.80
2023-05-04T10:12:23.413Z,75.50
2023-05-04T10:14:53.727Z,76.00
2023-05-04T10:17:41.686Z,75.40
2023-05-04T10:20:26.890Z,74.90
2023-05-04T10:23:24.687Z,74.30
2023-05-04T10:26:13.442Z,74.60
2023-05-04T10:28:40.474Z,74.40
2023-05-04T10:31:07.488Z,73.70
2023-05-04T10:33:43.633Z,73.60
2023-05-04T10:36:11.641Z,72.90
2023-05-04T10:38:40.270Z,72.80
2023-05-04T10:41:15.328Z,72.10
2023-05-04T10:43:43.086Z,71.60
2023-05-04T10:46:21.482Z,71.20
2023-05-04T10:48:49.454Z,71.60
2023-05-04T10:51:35.760Z,71.80
2023-05-04T10:54:19.304Z,71.10
2023-05-04T10:56:46.261Z,70.70
2023-05-04T10:59:14.939Z,69.40
2023-05-04T11:01:46.726Z,69.00
2023-05-04T11:04:23.012Z,70.20
2023-05-04T11:07:06.685Z,70.60
2023-05-04T11:09:37.986Z,69.70
2023-05-04T11:12:05.649Z,69.80
2023-05-04T11:14:41.544Z,69.40
2023-05-04T11:17:26.623Z,69.00
2023-05-04T11:19:53.976Z,69.00
2023-05-04T11:22:21.622Z,69.00
2023-05-04T11:24:49.229Z,70.40
2023-05-04T11:27:27.981Z,69.20
2023-05-04T11:30:00.954Z,68.50
2023-05-04T11:32:51.682Z,68.20
2023-05-04T11:35:25.399Z,68.60
2023-05-04T11:37:52.785Z,68.20
2023-05-04T11:40:24.264Z,68.10
2023-05-04T11:42:55.483Z,68.10
2023-05-04T11:45:25.102Z,68.00
2023-05-04T11:47:53.094Z,67.70
2023-05-04T11:50:20.858Z,67.90
2023-05-04T11:52:48.042Z,68.60
2023-05-04T11:55:31.231Z,69.10
2023-05-04T11:58:03.446Z,68.60
2023-05-04T12:00:42.237Z,68.50
2023-05-04T12:03:14.469Z,67.60
2023-05-04T12:05:48.498Z,66.90
2023-05-04T12:08:32.317Z,67.00
2023-05-04T12:11:25.506Z,67.20
2023-05-04T12:14:06.167Z,66.40
2023-05-04T12:16:33.555Z,67.00
2023-05-04T12:19:12.950Z,66.60
2023-05-04T12:21:50.396Z,66.80
2023-05-04T12:24:17.174Z,67.60
2023-05-04T12:26:43.855Z,67.70
2023-05-04T12:29:10.618Z,65.90
2023-05-04T12:31:37.309Z,65.30
2023-05-04T12:34:04.020Z,66.10
2023-05-04T12:36:30.729Z,66.00
2023-05-04T12:38:57.370Z,66.10
2023-05-04T12:41:25.158Z,66.50
2023-05-04T12:43:51.980Z,65.90
2023-05-04T12:46:21.458Z,66.00
2023-05-04T12:48:48.531Z,66.60
2023-05-04T12:51:15.455Z,66.20
2023-05-04T12:53:43.424Z,66.50
2023-05-04T12:56:10.124Z,66.40
2023-05-04T12:58:37.080Z,66.30
2023-05-04T13:01:04.184Z,65.90
2023-05-04T13:03:31.008Z,65.60
2023-05-04T13:05:58.730Z,66.40
2023-05-04T13:08:25.678Z,66.10
2023-05-04T13:10:52.400Z,65.20
2023-05-04T13:13:19.261Z,66.30
2023-05-04T13:15:50.625Z,65.50
2023-05-04T13:18:17.475Z,66.10
2023-05-04T13:20:44.250Z,65.80
2023-05-04T13:23:11.092Z,65.50
2023-05-04T13:25:37.842Z,64.60
2023-05-04T13:28:04.610Z,64.70
2023-05-04T13:30:31.281Z,64.10
2023-05-04T13:32:58.049Z,64.30
2023-05-04T13:35:25.463Z,64.90
2023-05-04T13:37:52.557Z,65.10
2023-05-04T13:40:19.236Z,64.80
2023-05-04T13:42:46.144Z,64.30
2023-05-04T13:45:13.208Z,64.00
2023-05-04T13:47:40.576Z,63.80
2023-05-04T13:50:08.204Z,64.00
2023-05-04T13:52:35.372Z,64.60
2023-05-04T13:55:02.488Z,63.90
2023-05-04T13:57:30.420Z,63.40
2023-05-04T14:00:07.529Z,64.00
2023-05-04T14:03:04.708Z,64.20
2023-05-04T14:05:32.401Z,63.90
2023-05-04T14:07:59.430Z,64.10
2023-05-04T14:10:33.155Z,63.30
2023-05-04T14:13:12.913Z,63.80
2023-05-04T14:15:41.101Z,63.70
2023-05-04T14:18:15.596Z,63.90
2023-05-04T14:20:44.792Z,62.80
2023-05-04T14:23:11.522Z,62.60
2023-05-04T14:25:39.074Z,62.60
2023-05-04T14:28:06.105Z,62.20
2023-05-04T14:30:34.085Z,62.50
2023-05-04T14:33:03.856Z,62.80
2023-05-04T14:35:31.396Z,62.70
2023-05-04T14:38:06.014Z,62.60
2023-05-04T14:40:37.446Z,62.50
2023-05-04T14:43:04.924Z,62.60
2023-05-04T14:45:33.212Z,62.50
2023-05-04T14:48:00.605Z,62.20
2023-05-04T14:50:27.766Z,61.60
2023-05-04T14:52:54.512Z,61.80
2023-05-04T14:55:21.937Z,62.40
2023-05-04T14:57:48.566Z,62.20
2023-05-04T15:00:22.650Z,62.90
2023-05-04T15:02:53.405Z,62.50
2023-05-04T15:05:20.803Z,63.50
2023-05-04T15:08:07.078Z,64.40
2023-05-04T15:10:33.995Z,63.40
2023-05-04T15:13:01.910Z,62.60
2023-05-04T15:15:31.358Z,63.00
2023-05-04T15:18:06.201Z,62.90
2023-05-04T15:20:33.211Z,63.30
2023-05-04T15:23:00.078Z,63.00
2023-05-04T15:25:27.485Z,63.80
2023-05-04T15:27:55.224Z,63.20
2023-05-04T15:30:23.672Z,64.60
2023-05-04T15:32:51.922Z,64.40
2023-05-04T15:35:18.868Z,64.20
2023-05-04T15:37:45.566Z,64.10
2023-05-04T15:40:12.825Z,64.10
2023-05-04T15:42:39.626Z,64.20
2023-05-04T15:45:10.609Z,63.70
2023-05-04T15:47:39.123Z,64.00
2023-05-04T15:50:06.919Z,63.90
2023-05-04T15:52:33.749Z,64.10
2023-05-04T15:55:12.404Z,64.30
2023-05-04T15:57:43.688Z,64.70
2023-05-04T16:00:11.379Z,64.60
2023-05-04T16:02:38.827Z,64.30
2023-05-04T16:05:06.808Z,64.60
2023-05-04T16:07:34.061Z,65.00
2023-05-04T16:10:00.875Z,65.10
2023-05-04T16:12:27.512Z,64.70
2023-05-04T16:14:54.195Z,64.90
2023-05-04T16:17:21.831Z,64.70
2023-05-04T16:19:48.508Z,65.40
2023-05-04T16:22:15.206Z,65.60
2023-05-04T16:24:41.892Z,65.30
2023-05-04T16:27:08.548Z,65.30
2023-05-04T16:29:39.918Z,65.60
2023-05-04T16:32:13.038Z,65.50
2023-05-04T16:34:40.104Z,65.70
2023-05-04T16:37:12.691Z,66.00
2023-05-04T16:39:40.356Z,66.20
2023-05-04T16:42:07.408Z,66.30
2023-05-04T16:44:34.035Z,66.50
2023-05-04T16:47:00.952Z,66.50
2023-05-04T16:49:27.691Z,66.60
2023-05-04T16:51:55.206Z,66.40
2023-05-04T16:54:24.749Z,66.50
2023-05-04T16:56:52.246Z,67.10
2023-05-04T16:59:18.978Z,66.80
2023-05-04T17:01:46.750Z,66.90
2023-05-04T17:04:13.545Z,67.30
2023-05-04T17:06:40.296Z,67.30
2023-05-04T17:09:07.033Z,67.70
2023-05-04T17:11:34.387Z,67.50
2023-05-04T17:14:04.823Z,67.70
2023-05-04T17:16:31.595Z,67.90
2023-05-04T17:18:58.373Z,68.20
2023-05-04T17:21:25.071Z,67.90
2023-05-04T17:23:51.756Z,68.10
2023-05-04T17:26:28.215Z,68.20
2023-05-04T17:28:56.170Z,69.00
2023-05-04T17:31:22.981Z,69.50
2023-05-04T17:33:49.684Z,69.60
2023-05-04T17:36:16.370Z,70.00
2023-05-04T17:38:43.648Z,69.90
2023-05-04T17:41:10.440Z,69.70
2023-05-04T17:43:37.235Z,69.80
2023-05-04T17:46:04.194Z,70.20
2023-05-04T17:48:31.822Z,70.70
2023-05-04T17:50:59.222Z,70.70
2023-05-04T17:53:29.233Z,71.00
2023-05-04T17:55:55.868Z,71.10
2023-05-04T17:58:22.811Z,71.80
2023-05-04T18:00:53.366Z,71.10
2023-05-04T18:03:24.468Z,71.80
2023-05-04T18:05:51.346Z,72.20
2023-05-04T18:08:18.880Z,72.00
2023-05-04T18:10:45.918Z,72.60
2023-05-04T18:13:12.944Z,72.80
2023-05-04T18:15:39.931Z,72.80
2023-05-04T18:18:10.933Z,73.50
2023-05-04T18:20:37.907Z,73.30
2023-05-04T18:23:07.835Z,73.90
2023-05-04T18:25:37.222Z,74.50
2023-05-04T18:28:04.095Z,74.20
2023-05-04T18:30:30.748Z,74.80
2023-05-04T18:32:57.583Z,75.20
2023-05-04T18:35:24.400Z,75.80
2023-05-04T18:37:51.374Z,75.70
2023-05-04T18:40:18.162Z,75.90
2023-05-04T18:42:45.454Z,75.70
2023-05-04T18:45:12.755Z,76.20
2023-05-04T18:47:39.927Z,76.50
2023-05-04T18:50:07.722Z,76.60
2023-05-04T18:52:34.992Z,76.70
2023-05-04T18:55:01.738Z,77.40
2023-05-04T18:57:30.040Z,78.00
2023-05-04T18:59:56.827Z,77.90
2023-05-04T19:02:24.818Z,78.30
2023-05-04T19:04:51.702Z,78.20
2023-05-04T19:07:18.615Z,78.20
2023-05-04T19:09:45.940Z,78.20
2023-05-04T19:12:13.997Z,77.90
2023-05-04T19:14:42.865Z,78.20
2023-05-04T19:17:09.482Z,79.00
2023-05-04T19:19:37.560Z,79.20
2023-05-04T19:22:04.458Z,79.00
2023-05-04T19:24:31.544Z,79.30
2023-05-04T19:27:00.212Z,79.20
2023-05-04T19:29:28.161Z,79.70
2023-05-04T19:31:55.037Z,79.30
2023-05-04T19:34:22.067Z,79.50
2023-05-04T19:36:49.221Z,79.80
2023-05-04T19:39:16.824Z,79.80
2023-05-04T19:41:43.927Z,79.90
2023-05-04T19:44:11.878Z,80.20
2023-05-04T19:46:38.680Z,80.20
2023-05-04T19:49:05.555Z,79.70
2023-05-04T19:51:32.816Z,79.90
2023-05-04T19:53:59.645Z,80.10
2023-05-04T19:56:26.491Z,80.40
2023-05-04T19:58:53.447Z,81.10
2023-05-04T20:01:20.627Z,81.40
2023-05-04T20:03:47.507Z,81.40
2023-05-04T20:06:14.599Z,81.60
2023-05-04T20:08:44.614Z,81.80
2023-05-04T20:11:13.160Z,81.70
2023-05-04T20:13:40.061Z,81.80
2023-05-04T20:16:07.477Z,81.90
2023-05-04T20:18:34.433Z,82.00
2023-05-04T20:21:01.445Z,81.90
2023-05-04T20:23:28.137Z,82.00
2023-05-04T20:25:55.287Z,81.90
2023-05-04T20:28:22.839Z,81.80
2023-05-04T20:30:49.982Z,82.00
2023-05-04T20:33:17.058Z,82.10
2023-05-04T20:35:45.329Z,83.00
2023-05-04T20:38:12.344Z,83.00
2023-05-04T20:40:39.384Z,82.50
2023-05-04T20:43:06.067Z,82.90
2023-05-04T20:45:34.327Z,83.10
2023-05-04T20:48:04.712Z,83.40
2023-05-04T20:50:31.716Z,83.40
2023-05-04T20:53:01.283Z,83.50
2023-05-04T20:55:28.169Z,83.90
2023-05-04T20:57:55.637Z,84.20
2023-05-04T21:00:24.664Z,84.50
2023-05-04T21:02:51.445Z,84.50
2023-05-04T21:05:18.927Z,84.60
2023-05-04T21:07:45.868Z,84.90
2023-05-04T21:10:12.817Z,85.00
2023-05-04T21:12:39.618Z,85.00
2023-05-04T21:15:07.000Z,84.80
2023-05-04T21:17:33.788Z,85.10
2023-05-04T21:20:01.021Z,84.70
2023-05-04T21:22:30.261Z,85.00
2023-05-04T21:24:57.068Z,85.20
2023-05-04T21:27:26.977Z,85.80
2023-05-04T21:29:55.738Z,86.00
2023-05-04T21:32:24.613Z,86.10
2023-05-04T21:34:54.928Z,86.30
2023-05-04T21:37:21.843Z,86.30
2023-05-04T21:39:54.116Z,86.40
2023-05-04T21:42:21.380Z,86.50
2023-05-04T21:44:54.232Z,86.90
2023-05-04T21:47:21.031Z,87.10
2023-05-04T21:49:47.845Z,87.20
2023-05-04T21:52:14.725Z,87.30
2023-05-04T21:54:41.359Z,87.30
2023-05-04T21:57:07.999Z,87.40
2023-05-04T21:59:34.658Z,87.40
2023-05-04T22:02:01.576Z,87.60
2023-05-04T22:04:28.221Z,87.90
2023-05-04T22:06:55.107Z,87.80
2023-05-04T22:09:21.937Z,88.00
2023-05-04T22:11:49.452Z,88.10
2023-05-04T22:14:16.092Z,88.20
2023-05-04T22:16:42.801Z,88.10
2023-05-04T22:19:09.537Z,88.40
2023-05-04T22:21:39.265Z,88.70
2023-05-04T22:24:06.663Z,88.90
2023-05-04T22:26:33.305Z,88.80
2023-05-04T22:29:00.027Z,89.20
2023-05-04T22:31:26.696Z,89.50
2023-05-04T22:33:53.378Z,89.70
2023-05-04T22:36:20.057Z,89.50
2023-05-04T22:38:46.855Z,89.00
2023-05-04T22:41:14.466Z,89.30
2023-05-04T22:43:41.300Z,89.60
2023-05-04T22:46:13.328Z,89.90
2023-05-04T22:48:39.992Z,89.90
2023-05-04T22:51:06.646Z,89.70
2023-05-04T22:53:33.283Z,89.40
2023-05-04T22:55:59.937Z,89.80
2023-05-04T22:58:26.936Z,90.10
2023-05-04T23:00:53.590Z,90.20
2023-05-04T23:03:20.263Z,90.20
2023-05-04T23:05:47.608Z,90.20
2023-05-04T23:08:14.329Z,90.20
2023-05-04T23:10:46.977Z,90.50
2023-05-04T23:13:13.715Z,90.20
2023-05-04T23:15:40.414Z,90.70
2023-05-04T23:18:07.237Z,90.70
2023-05-04T23:20:33.945Z,90.50
2023-05-04T23:23:00.620Z,90.60
2023-05-04T23:25:27.346Z,90.60
2023-05-04T23:27:54.691Z,90.40
2023-05-04T23:30:21.344Z,90.60
2023-05-04T23:32:48.027Z,91.10
2023-05-04T23:35:14.935Z,91.20
2023-05-04T23:37:41.858Z,91.20
2023-05-04T23:40:09.362Z,91.00
2023-05-04T23:42:36.165Z,90.50
2023-05-04T23:45:02.825Z,90.80
2023-05-04T23:47:29.496Z,91.20
2023-05-04T23:49:56.284Z,91.40
2023-05-04T23:52:23.112Z,91.80
2023-05-04T23:54:53.915Z,91.80
2023-05-04T23:57:20.629Z,91.90
2023-05-04T23:59:47.522Z,92.10
